首页
METAR-TAF:

METAR-TAF

机场 :

扎博勒, 伊朗

纬度: 31-20N, 经度: 061-29E, 海拔: 489米

当前天气观测

该预报发布于1小时和3分钟前的08:00 UTC
风速19节,风向北转西北
温度 28°C
湿度 17%
气压 1020 hPa
能见度10公里或以上
1500米以下无云,无积雨云

METAR: OIZB 170800Z 34019KT CAVOK 28/01 Q1020

时间: 12:33 (09:03 UTC)


TAF: 丢失

超过4000个机场的气象观测和天气预报(METAR&TAF报告)。

可查询的气象台以黄色和红色小点在地图上表示。

将鼠标移到小点上方,可查看气象台名称。

然后点击查看天气观测和预报。

如需切换地图:点击带黑十字的绿色按钮放大地图;点击带横线的绿色按钮缩小地图;或者点击绿色箭头查看邻近地区的地图。


METAR-TAF: